createdAt,value
2022-08-27T00:01:25.919Z,16.38
2022-08-27T00:03:56.685Z,17.35
2022-08-27T00:06:25.605Z,18.42
2022-08-27T00:08:53.692Z,14.80
2022-08-27T00:11:23.098Z,19.50
2022-08-27T00:13:50.264Z,14.30
2022-08-27T00:16:18.154Z,21.00
2022-08-27T00:18:48.310Z,20.63
2022-08-27T00:21:16.863Z,18.77
2022-08-27T00:23:43.896Z,15.85
2022-08-27T00:26:11.780Z,19.27
2022-08-27T00:28:39.554Z,16.02
2022-08-27T00:31:07.161Z,16.52
2022-08-27T00:33:35.500Z,17.17
2022-08-27T00:36:04.521Z,16.85
2022-08-27T00:38:31.825Z,17.88
2022-08-27T00:41:01.293Z,19.45
2022-08-27T00:43:43.386Z,17.88
2022-08-27T00:46:23.139Z,20.30
2022-08-27T00:48:53.623Z,18.38
2022-08-27T00:51:22.287Z,19.20
2022-08-27T00:53:50.330Z,20.92
2022-08-27T00:56:23.286Z,19.52
2022-08-27T00:58:52.722Z,22.95
2022-08-27T01:01:24.607Z,16.85
2022-08-27T01:03:53.439Z,20.08
2022-08-27T01:06:23.485Z,16.80
2022-08-27T01:09:02.763Z,20.30
2022-08-27T01:11:31.402Z,19.25
2022-08-27T01:13:59.499Z,18.63
2022-08-27T01:16:32.252Z,17.90
2022-08-27T01:19:01.070Z,16.83
2022-08-27T01:21:50.978Z,15.80
2022-08-27T01:24:33.461Z,19.70
2022-08-27T01:27:03.059Z,24.33
2022-08-27T01:29:30.467Z,18.40
2022-08-27T01:32:12.282Z,18.38
2022-08-27T01:34:39.588Z,18.42
2022-08-27T01:37:07.215Z,18.23
2022-08-27T01:39:37.246Z,18.52
2022-08-27T01:42:08.039Z,19.23
2022-08-27T01:44:51.745Z,20.85
2022-08-27T01:47:20.753Z,21.42
2022-08-27T01:49:48.198Z,18.45
2022-08-27T01:52:17.473Z,22.45
2022-08-27T01:54:44.591Z,23.45
2022-08-27T01:57:12.604Z,19.83
2022-08-27T01:59:40.111Z,17.58
2022-08-27T02:02:11.785Z,18.48
2022-08-27T02:04:39.257Z,18.98
2022-08-27T02:07:06.776Z,15.45
2022-08-27T02:09:33.977Z,19.88
2022-08-27T02:12:01.314Z,19.17
2022-08-27T02:14:29.184Z,20.98
2022-08-27T02:16:56.605Z,20.95
2022-08-27T02:19:24.093Z,24.02
2022-08-27T02:21:51.568Z,24.85
2022-08-27T02:24:18.669Z,21.98
2022-08-27T02:26:46.063Z,23.40
2022-08-27T02:29:13.075Z,20.35
2022-08-27T02:31:41.476Z,20.85
2022-08-27T02:34:09.951Z,25.60
2022-08-27T02:36:37.632Z,23.75
2022-08-27T02:39:06.256Z,22.23
2022-08-27T02:41:33.443Z,21.73
2022-08-27T02:44:01.475Z,22.55
2022-08-27T02:46:29.208Z,21.23
2022-08-27T02:48:56.350Z,24.27
2022-08-27T02:51:23.479Z,19.83
2022-08-27T02:53:50.548Z,22.40
2022-08-27T02:56:21.721Z,17.35
2022-08-27T02:58:49.935Z,20.85
2022-08-27T03:01:17.087Z,20.52
2022-08-27T03:03:44.179Z,22.73
2022-08-27T03:06:11.430Z,25.75
2022-08-27T03:08:53.242Z,24.08
2022-08-27T03:11:23.730Z,20.60
2022-08-27T03:13:51.833Z,21.55
2022-08-27T03:16:19.179Z,26.42
2022-08-27T03:18:46.355Z,20.40
2022-08-27T03:21:19.595Z,23.70
2022-08-27T03:23:47.048Z,20.97
2022-08-27T03:26:14.552Z,20.08
2022-08-27T03:28:41.822Z,24.83
2022-08-27T03:31:15.873Z,24.35
2022-08-27T03:33:43.688Z,23.75
2022-08-27T03:36:10.779Z,24.50
2022-08-27T03:38:38.434Z,24.25
2022-08-27T03:41:06.385Z,23.33
2022-08-27T03:43:33.406Z,21.27
2022-08-27T03:46:02.374Z,22.48
2022-08-27T03:48:31.381Z,24.40
2022-08-27T03:50:59.011Z,22.98
2022-08-27T03:53:26.174Z,25.15
2022-08-27T03:55:53.306Z,22.95
2022-08-27T03:58:20.440Z,24.42
2022-08-27T04:00:47.517Z,26.05
2022-08-27T04:03:15.208Z,22.98
2022-08-27T04:05:45.513Z,28.45
2022-08-27T04:08:13.541Z,21.77
2022-08-27T04:10:42.320Z,26.05
2022-08-27T04:13:09.525Z,24.20
2022-08-27T04:15:37.869Z,23.90
2022-08-27T04:18:08.777Z,28.08
2022-08-27T04:20:36.559Z,25.08
2022-08-27T04:23:04.642Z,28.60
2022-08-27T04:25:32.263Z,24.95
2022-08-27T04:27:59.568Z,25.05
2022-08-27T04:30:26.943Z,25.23
2022-08-27T04:32:54.290Z,24.63
2022-08-27T04:35:21.978Z,18.55
2022-08-27T04:37:49.064Z,23.65
2022-08-27T04:40:17.666Z,26.40
2022-08-27T04:42:44.986Z,24.10
2022-08-27T04:45:12.221Z,26.63
2022-08-27T04:47:39.378Z,25.63
2022-08-27T04:50:07.182Z,21.52
2022-08-27T04:52:40.329Z,21.55
2022-08-27T04:55:08.778Z,25.63
2022-08-27T04:57:38.187Z,27.95
2022-08-27T05:00:07.700Z,28.38
2022-08-27T05:02:34.829Z,28.77
2022-08-27T05:05:01.983Z,24.92
2022-08-27T05:07:29.051Z,25.58
2022-08-27T05:09:56.195Z,28.48
2022-08-27T05:12:23.880Z,25.90
2022-08-27T05:14:50.935Z,27.45
2022-08-27T05:17:18.013Z,20.77
2022-08-27T05:19:45.129Z,22.10
2022-08-27T05:22:12.138Z,19.55
2022-08-27T05:24:39.367Z,19.15
2022-08-27T05:27:06.614Z,18.50
2022-08-27T05:29:37.207Z,18.40
2022-08-27T05:32:04.978Z,18.60
2022-08-27T05:34:32.149Z,17.13
2022-08-27T05:36:59.175Z,16.30
2022-08-27T05:39:26.249Z,15.88
2022-08-27T05:41:57.547Z,18.50
2022-08-27T05:44:40.631Z,18.95
2022-08-27T05:47:08.752Z,18.88
2022-08-27T05:49:35.829Z,17.05
2022-08-27T05:52:03.100Z,21.58
2022-08-27T05:54:30.104Z,19.73
2022-08-27T05:56:57.193Z,16.73
2022-08-27T05:59:42.582Z,20.05
2022-08-27T06:02:09.752Z,17.05
2022-08-27T06:04:37.182Z,18.77
2022-08-27T06:07:04.565Z,17.30
2022-08-27T06:09:31.610Z,20.00
2022-08-27T06:12:00.454Z,19.23
2022-08-27T06:14:28.227Z,19.05
2022-08-27T06:16:56.967Z,21.00
2022-08-27T06:19:24.090Z,19.90
2022-08-27T06:22:00.113Z,20.42
2022-08-27T06:24:38.414Z,21.08
2022-08-27T06:27:05.758Z,18.75
2022-08-27T06:29:35.358Z,20.20
2022-08-27T06:32:02.660Z,22.77
2022-08-27T06:34:29.882Z,21.30
2022-08-27T06:36:57.039Z,19.10
2022-08-27T06:39:24.134Z,21.92
2022-08-27T06:41:51.343Z,17.98
2022-08-27T06:44:18.664Z,18.02
2022-08-27T06:46:45.931Z,19.52
2022-08-27T06:49:13.814Z,16.33
2022-08-27T06:51:44.923Z,18.45
2022-08-27T06:54:13.082Z,15.05
2022-08-27T06:56:41.992Z,16.25
2022-08-27T06:59:12.191Z,17.85
2022-08-27T07:01:42.695Z,22.60
2022-08-27T07:04:14.606Z,18.63
2022-08-27T07:06:41.970Z,15.02
2022-08-27T07:09:10.294Z,20.20
2022-08-27T07:11:38.494Z,15.68
2022-08-27T07:14:06.750Z,15.68
2022-08-27T07:16:34.235Z,17.10
2022-08-27T07:19:04.374Z,13.02
2022-08-27T07:21:33.533Z,14.98
2022-08-27T07:24:05.120Z,13.68
2022-08-27T07:26:34.819Z,11.45
2022-08-27T07:29:03.257Z,11.68
2022-08-27T07:31:30.562Z,12.88
2022-08-27T07:33:57.610Z,8.00
2022-08-27T07:36:25.306Z,11.77
2022-08-27T07:39:00.691Z,9.57
2022-08-27T07:41:30.782Z,10.73
2022-08-27T07:44:18.453Z,10.07
2022-08-27T07:46:48.318Z,9.07
2022-08-27T07:49:17.538Z,9.23
2022-08-27T07:51:45.808Z,9.63
2022-08-27T07:54:12.920Z,8.57
2022-08-27T07:56:40.276Z,8.63
2022-08-27T07:59:08.100Z,9.82
2022-08-27T08:01:35.256Z,8.98
2022-08-27T08:04:02.960Z,7.70
2022-08-27T08:06:30.126Z,9.13
2022-08-27T08:08:58.814Z,7.10
2022-08-27T08:11:26.613Z,11.57
2022-08-27T08:13:53.715Z,7.68
2022-08-27T08:16:25.412Z,8.20
2022-08-27T08:18:55.667Z,6.07
2022-08-27T08:21:22.798Z,8.35
2022-08-27T08:23:50.207Z,6.47
2022-08-27T08:26:17.515Z,5.30
2022-08-27T08:28:45.641Z,5.97
2022-08-27T08:31:13.032Z,6.53
2022-08-27T08:33:40.538Z,5.05
2022-08-27T08:36:10.822Z,4.00
2022-08-27T08:38:40.129Z,5.95
2022-08-27T08:41:28.392Z,7.40
2022-08-27T08:44:04.852Z,6.18
2022-08-27T08:46:55.102Z,5.57
2022-08-27T08:49:48.731Z,4.53
2022-08-27T08:52:34.719Z,5.32
2022-08-27T08:55:11.440Z,4.38
2022-08-27T08:58:09.704Z,5.57
2022-08-27T09:00:38.943Z,6.35
2022-08-27T09:03:06.838Z,3.83
2022-08-27T09:05:40.008Z,6.53
2022-08-27T09:08:35.628Z,4.22
2022-08-27T09:11:07.810Z,4.85
2022-08-27T09:13:48.982Z,5.85
2022-08-27T09:16:16.428Z,4.65
2022-08-27T09:18:45.849Z,4.18
2022-08-27T09:21:51.601Z,5.18
2022-08-27T09:24:33.001Z,6.32
2022-08-27T09:27:00.440Z,5.20
2022-08-27T09:29:29.615Z,5.25
2022-08-27T09:32:09.497Z,7.28
2022-08-27T09:34:40.131Z,4.47
2022-08-27T09:37:34.174Z,5.82
2022-08-27T09:42:53.549Z,6.63
2022-08-27T09:45:22.581Z,7.45
2022-08-27T09:47:56.230Z,6.80
2022-08-27T09:50:31.593Z,7.85
2022-08-27T09:53:00.313Z,5.03
2022-08-27T09:55:43.803Z,8.70
2022-08-27T09:58:23.174Z,5.60
2022-08-27T10:01:17.302Z,8.65
2022-08-27T10:03:44.956Z,9.23
2022-08-27T10:06:12.573Z,5.68
2022-08-27T10:08:48.952Z,10.73
2022-08-27T10:11:36.204Z,10.30
2022-08-27T10:14:16.576Z,7.70
2022-08-27T10:16:51.180Z,5.57
2022-08-27T10:19:37.306Z,6.95
2022-08-27T10:22:09.906Z,7.63
2022-08-27T10:24:48.450Z,7.43
2022-08-27T10:27:47.695Z,7.95
2022-08-27T10:30:19.024Z,6.70
2022-08-27T10:33:15.004Z,8.63
2022-08-27T10:35:58.341Z,7.53
2022-08-27T10:38:54.352Z,7.35
2022-08-27T10:41:28.673Z,5.85
2022-08-27T10:44:18.060Z,7.47
2022-08-27T10:46:50.913Z,10.77
2022-08-27T10:49:39.495Z,6.97
2022-08-27T10:52:31.250Z,7.28
2022-08-27T10:55:11.288Z,8.32
2022-08-27T10:58:05.970Z,7.35
2022-08-27T11:03:32.202Z,8.13
2022-08-27T11:06:10.265Z,6.95
2022-08-27T11:08:50.081Z,7.47
2022-08-27T11:12:13.812Z,9.77
2022-08-27T11:15:01.392Z,14.85
2022-08-27T11:17:36.927Z,6.90
2022-08-27T11:20:27.021Z,8.88
2022-08-27T11:23:16.986Z,7.90
2022-08-27T11:25:59.087Z,9.95
2022-08-27T11:28:42.156Z,9.25
2022-08-27T11:31:38.338Z,8.55
2022-08-27T11:34:13.599Z,10.32
2022-08-27T11:37:08.333Z,8.73
2022-08-27T11:42:36.251Z,9.00
2022-08-27T11:45:31.183Z,10.93
2022-08-27T11:48:01.278Z,9.70
2022-08-27T11:50:31.362Z,9.18
2022-08-27T11:53:03.907Z,11.88
2022-08-27T11:55:36.769Z,10.88
2022-08-27T11:58:17.872Z,10.85
2022-08-27T12:00:47.004Z,13.43
2022-08-27T12:03:20.270Z,11.73
2022-08-27T12:06:04.590Z,11.98
2022-08-27T12:08:35.827Z,10.75
2022-08-27T12:11:19.759Z,9.98
2022-08-27T12:13:49.901Z,8.80
2022-08-27T12:16:39.136Z,10.40
2022-08-27T12:19:18.269Z,9.35
2022-08-27T12:22:12.427Z,6.68
2022-08-27T12:24:59.539Z,6.95
2022-08-27T12:27:34.832Z,8.55
2022-08-27T12:30:06.912Z,7.25
2022-08-27T12:32:33.938Z,7.25
2022-08-27T12:35:23.720Z,12.30
2022-08-27T12:38:17.983Z,7.63
2022-08-27T12:43:23.567Z,5.72
2022-08-27T12:46:07.876Z,6.55
2022-08-27T12:51:13.018Z,8.63
2022-08-27T12:54:08.585Z,5.45
2022-08-27T12:57:01.081Z,8.18
2022-08-27T13:00:08.328Z,7.70
2022-08-27T13:02:44.329Z,6.82
2022-08-27T13:05:12.465Z,5.32
2022-08-27T13:07:45.584Z,5.25
2022-08-27T13:10:28.329Z,5.00
2022-08-27T13:13:09.430Z,5.10
2022-08-27T13:15:39.921Z,5.07
2022-08-27T13:18:07.860Z,6.15
2022-08-27T13:20:40.641Z,7.90
2022-08-27T13:23:30.735Z,6.32
2022-08-27T13:26:22.351Z,7.00
2022-08-27T13:28:49.895Z,8.02
2022-08-27T13:31:18.561Z,5.80
2022-08-27T13:33:46.252Z,3.97
2022-08-27T13:36:13.880Z,3.47
2022-08-27T13:38:49.312Z,4.70
2022-08-27T13:41:31.155Z,6.47
2022-08-27T13:44:05.662Z,7.65
2022-08-27T13:46:34.271Z,5.95
2022-08-27T13:49:01.890Z,6.35
2022-08-27T13:51:32.900Z,5.38
2022-08-27T13:54:18.529Z,7.05
2022-08-27T13:56:49.723Z,7.43
2022-08-27T13:59:28.111Z,6.10
2022-08-27T14:01:58.365Z,8.45
2022-08-27T14:04:35.575Z,6.85
2022-08-27T14:07:10.743Z,6.45
2022-08-27T14:09:54.102Z,6.32
2022-08-27T14:12:38.271Z,7.72
2022-08-27T14:15:21.181Z,8.90
2022-08-27T14:17:48.719Z,6.38
2022-08-27T14:20:17.850Z,4.72
2022-08-27T14:22:47.260Z,9.65
2022-08-27T14:25:15.396Z,13.98
2022-08-27T14:27:52.812Z,6.22
2022-08-27T14:30:30.004Z,10.82
2022-08-27T14:32:59.269Z,10.18
2022-08-27T14:35:27.721Z,8.98
2022-08-27T14:37:55.687Z,8.13
2022-08-27T14:40:23.865Z,9.48
2022-08-27T14:42:51.082Z,8.35
2022-08-27T14:45:18.596Z,9.25
2022-08-27T14:47:46.091Z,7.57
2022-08-27T14:50:14.249Z,11.90
2022-08-27T14:52:41.425Z,7.00
2022-08-27T14:55:11.043Z,12.00
2022-08-27T14:57:38.574Z,8.05
2022-08-27T15:00:08.422Z,6.47
2022-08-27T15:02:38.512Z,8.55
2022-08-27T15:05:11.384Z,9.75
2022-08-27T15:10:09.973Z,9.00
2022-08-27T15:12:38.253Z,6.57
2022-08-27T15:15:07.481Z,11.02
2022-08-27T15:17:36.779Z,7.18
2022-08-27T15:20:13.707Z,10.82
2022-08-27T15:22:48.645Z,9.52
2022-08-27T15:25:18.933Z,12.25
2022-08-27T15:27:46.115Z,7.03
2022-08-27T15:30:16.005Z,8.32
2022-08-27T15:32:47.443Z,8.60
2022-08-27T15:35:18.892Z,9.05
2022-08-27T15:37:46.448Z,8.63
2022-08-27T15:40:15.810Z,10.40
2022-08-27T15:42:43.195Z,6.70
2022-08-27T15:45:12.322Z,11.52
2022-08-27T15:47:39.813Z,8.43
2022-08-27T15:50:07.722Z,9.50
2022-08-27T15:52:40.342Z,9.10
2022-08-27T15:55:18.789Z,8.23
2022-08-27T15:57:45.979Z,7.72
2022-08-27T16:00:16.091Z,11.45
2022-08-27T16:02:44.918Z,8.00
2022-08-27T16:05:13.937Z,10.15
2022-08-27T16:07:41.325Z,10.82
2022-08-27T16:10:10.463Z,8.40
2022-08-27T16:12:38.022Z,5.88
2022-08-27T16:15:06.131Z,8.43
2022-08-27T16:17:33.589Z,8.25
2022-08-27T16:20:00.811Z,8.30
2022-08-27T16:22:28.618Z,38.08
2022-08-27T16:24:55.709Z,29.40
2022-08-27T16:27:22.840Z,12.35
2022-08-27T16:29:50.240Z,12.98
2022-08-27T16:32:19.257Z,12.63
2022-08-27T16:34:47.681Z,10.32
2022-08-27T16:37:24.338Z,13.18
2022-08-27T16:39:52.231Z,30.13
2022-08-27T16:42:20.698Z,29.92
2022-08-27T16:44:48.058Z,112.15
2022-08-27T16:47:15.466Z,18.92
2022-08-27T16:50:01.609Z,14.35
2022-08-27T16:52:30.726Z,8.18
2022-08-27T16:54:58.215Z,9.27
2022-08-27T16:57:26.163Z,18.65
2022-08-27T16:59:55.270Z,32.10
2022-08-27T17:02:35.157Z,68.40
2022-08-27T17:05:33.955Z,14.65
2022-08-27T17:07:50.370Z,20.90
2022-08-27T17:10:19.228Z,12.35
2022-08-27T17:12:48.308Z,35.33
2022-08-27T17:15:17.058Z,24.58
2022-08-27T17:17:45.511Z,8.90
2022-08-27T17:20:15.555Z,11.30
2022-08-27T17:22:43.851Z,18.65
2022-08-27T17:25:11.537Z,34.63
2022-08-27T17:27:38.816Z,10.52
2022-08-27T17:30:07.575Z,10.85
2022-08-27T17:32:38.735Z,7.00
2022-08-27T17:35:08.535Z,13.68
2022-08-27T17:37:35.892Z,7.43
2022-08-27T17:40:04.254Z,9.48
2022-08-27T17:42:32.110Z,6.07
2022-08-27T17:45:02.814Z,9.43
2022-08-27T17:47:30.585Z,8.10
2022-08-27T17:49:58.766Z,12.25
2022-08-27T17:52:25.990Z,8.65
2022-08-27T17:54:56.584Z,7.20
2022-08-27T17:57:27.915Z,8.30
2022-08-27T17:59:56.352Z,10.13
2022-08-27T18:02:28.428Z,8.55
2022-08-27T18:04:56.639Z,9.07
2022-08-27T18:07:24.716Z,8.50
2022-08-27T18:09:53.412Z,8.35
2022-08-27T18:12:24.682Z,6.70
2022-08-27T18:15:24.128Z,8.05
2022-08-27T18:17:53.258Z,10.73
2022-08-27T18:20:23.626Z,9.15
2022-08-27T18:22:53.059Z,6.93
2022-08-27T18:25:25.862Z,6.10
2022-08-27T18:27:59.880Z,11.27
2022-08-27T18:30:27.303Z,10.38
2022-08-27T18:32:55.100Z,5.70
2022-08-27T18:35:26.689Z,9.40
2022-08-27T18:37:54.297Z,10.77
2022-08-27T18:40:24.122Z,12.50
2022-08-27T18:42:52.181Z,7.65
2022-08-27T18:45:23.527Z,6.15
2022-08-27T18:47:52.826Z,8.60
2022-08-27T18:50:20.304Z,8.35
2022-08-27T18:52:50.744Z,8.73
2022-08-27T18:55:23.048Z,7.80
2022-08-27T18:57:52.444Z,11.25
2022-08-27T19:00:20.871Z,8.52
2022-08-27T19:02:52.566Z,8.18
2022-08-27T19:05:26.601Z,8.80
2022-08-27T19:07:54.543Z,7.72
2022-08-27T19:10:21.771Z,7.35
2022-08-27T19:12:49.099Z,9.40
2022-08-27T19:15:17.057Z,9.63
2022-08-27T19:17:49.500Z,8.20
2022-08-27T19:20:19.209Z,10.65
2022-08-27T19:22:48.170Z,7.93
2022-08-27T19:25:16.841Z,12.15
2022-08-27T19:27:45.988Z,9.15
2022-08-27T19:30:15.875Z,7.03
2022-08-27T19:32:44.223Z,10.07
2022-08-27T19:35:11.834Z,8.90
2022-08-27T19:37:44.116Z,6.45
2022-08-27T19:40:15.907Z,8.95
2022-08-27T19:42:44.472Z,8.68
2022-08-27T19:45:13.232Z,8.32
2022-08-27T19:47:41.827Z,6.03
2022-08-27T19:50:09.660Z,6.43
2022-08-27T19:52:37.237Z,6.78
2022-08-27T19:55:17.348Z,5.72
2022-08-27T19:57:47.981Z,8.48
2022-08-27T20:00:19.323Z,9.55
2022-08-27T20:02:47.167Z,8.00
2022-08-27T20:05:19.810Z,5.57
2022-08-27T20:07:55.266Z,6.78
2022-08-27T20:10:31.768Z,5.22
2022-08-27T20:13:05.332Z,7.10
2022-08-27T20:15:33.424Z,9.48
2022-08-27T20:18:04.512Z,5.07
2022-08-27T20:20:35.678Z,7.03
2022-08-27T20:23:04.280Z,7.43
2022-08-27T20:25:33.867Z,5.50
2022-08-27T20:28:16.272Z,6.38
2022-08-27T20:30:51.502Z,9.48
2022-08-27T20:33:19.178Z,6.00
2022-08-27T20:35:46.566Z,4.10
2022-08-27T20:38:14.859Z,6.55
2022-08-27T20:40:42.367Z,8.13
2022-08-27T20:43:09.679Z,5.07
2022-08-27T20:45:39.378Z,6.13
2022-08-27T20:48:06.704Z,4.63
2022-08-27T20:50:34.706Z,6.15
2022-08-27T20:53:02.582Z,6.03
2022-08-27T20:55:30.271Z,7.78
2022-08-27T20:58:16.077Z,2.78
2022-08-27T21:00:44.071Z,5.65
2022-08-27T21:03:14.315Z,6.20
2022-08-27T21:05:43.853Z,4.57
2022-08-27T21:08:11.219Z,8.27
2022-08-27T21:10:55.269Z,4.78
2022-08-27T21:13:23.530Z,8.32
2022-08-27T21:15:56.405Z,5.50
2022-08-27T21:18:29.582Z,5.67
2022-08-27T21:20:58.247Z,7.43
2022-08-27T21:23:28.156Z,5.18
2022-08-27T21:26:05.504Z,5.97
2022-08-27T21:28:33.192Z,5.10
2022-08-27T21:31:00.317Z,5.35
2022-08-27T21:33:27.641Z,6.90
2022-08-27T21:35:55.138Z,6.40
2022-08-27T21:38:23.258Z,7.47
2022-08-27T21:40:50.377Z,6.75
2022-08-27T21:43:17.987Z,7.45
2022-08-27T21:45:45.852Z,3.92
2022-08-27T21:48:13.527Z,4.50
2022-08-27T21:50:40.868Z,6.30
2022-08-27T21:53:08.135Z,8.10
2022-08-27T21:55:35.424Z,4.53
2022-08-27T21:58:02.639Z,4.35
2022-08-27T22:00:29.808Z,7.68
2022-08-27T22:02:57.716Z,7.55
2022-08-27T22:05:25.483Z,8.07
2022-08-27T22:07:52.791Z,6.80
2022-08-27T22:10:20.285Z,7.05
2022-08-27T22:12:47.555Z,6.43
2022-08-27T22:15:15.044Z,3.65
2022-08-27T22:17:42.480Z,3.92
2022-08-27T22:20:10.797Z,5.65
2022-08-27T22:22:38.668Z,3.42
2022-08-27T22:25:06.783Z,5.47
2022-08-27T22:27:33.969Z,3.58
2022-08-27T22:30:01.223Z,5.55
2022-08-27T22:32:28.789Z,3.72
2022-08-27T22:34:56.113Z,4.18
2022-08-27T22:37:23.498Z,4.68
2022-08-27T22:39:52.486Z,6.75
2022-08-27T22:42:20.211Z,3.50
2022-08-27T22:44:47.693Z,12.18
2022-08-27T22:47:15.227Z,7.20
2022-08-27T22:49:43.669Z,6.25
2022-08-27T22:52:13.260Z,4.40
2022-08-27T22:54:40.423Z,5.00
2022-08-27T22:57:10.501Z,4.13
2022-08-27T22:59:38.773Z,6.00
2022-08-27T23:02:08.659Z,5.18
2022-08-27T23:04:54.454Z,4.63
2022-08-27T23:07:22.908Z,5.32
2022-08-27T23:09:50.221Z,7.70
2022-08-27T23:12:17.999Z,6.53
2022-08-27T23:14:45.373Z,6.35
2022-08-27T23:17:12.939Z,7.03
2022-08-27T23:19:40.204Z,8.85
2022-08-27T23:22:08.011Z,7.47
2022-08-27T23:24:55.950Z,5.88
2022-08-27T23:27:28.999Z,6.45
2022-08-27T23:30:00.285Z,4.82
2022-08-27T23:32:28.250Z,10.32
2022-08-27T23:34:56.440Z,8.85
2022-08-27T23:37:24.223Z,6.43
2022-08-27T23:39:51.712Z,6.30
2022-08-27T23:42:19.567Z,4.43
2022-08-27T23:44:49.095Z,3.13
2022-08-27T23:47:17.947Z,3.95
2022-08-27T23:49:45.914Z,5.72
2022-08-27T23:52:13.674Z,5.97
2022-08-27T23:54:41.198Z,5.38
2022-08-27T23:57:08.485Z,5.57
2022-08-27T23:59:35.878Z,4.28
